createdAt,value
2018-05-29T00:00:01.690Z,100669
2018-05-29T00:02:30.264Z,100667
2018-05-29T00:04:58.924Z,100665
2018-05-29T00:07:27.271Z,100663
2018-05-29T00:09:56.667Z,100666
2018-05-29T00:12:25.919Z,100664
2018-05-29T00:14:54.242Z,100666
2018-05-29T00:17:23.405Z,100662
2018-05-29T00:19:51.775Z,100660
2018-05-29T00:22:20.584Z,100661
2018-05-29T00:24:48.937Z,100664
2018-05-29T00:27:18.266Z,100667
2018-05-29T00:29:47.409Z,100675
2018-05-29T00:32:15.808Z,100675
2018-05-29T00:34:44.146Z,100673
2018-05-29T00:37:14.485Z,100671
2018-05-29T00:39:42.917Z,100671
2018-05-29T00:42:12.575Z,100671
2018-05-29T00:44:40.916Z,100668
2018-05-29T00:47:10.255Z,100672
2018-05-29T00:49:38.575Z,100664
2018-05-29T00:52:07.251Z,100664
2018-05-29T00:54:35.680Z,100661
2018-05-29T00:57:04.029Z,100655
2018-05-29T00:59:32.361Z,100660
2018-05-29T01:02:00.933Z,100657
2018-05-29T01:04:29.256Z,100662
2018-05-29T01:06:57.824Z,100657
2018-05-29T01:09:26.391Z,100659
2018-05-29T01:11:54.941Z,100667
2018-05-29T01:14:23.274Z,100656
2018-05-29T01:16:52.857Z,100650
2018-05-29T01:19:21.200Z,100653
2018-05-29T01:21:49.734Z,100655
2018-05-29T01:24:19.054Z,100656
2018-05-29T01:26:47.576Z,100657
2018-05-29T01:29:15.962Z,100651
2018-05-29T01:31:44.360Z,100652
2018-05-29T01:34:13.547Z,100649
2018-05-29T01:36:41.842Z,100647
2018-05-29T01:39:11.201Z,100644
2018-05-29T01:41:39.527Z,100645
2018-05-29T01:44:08.151Z,100644
2018-05-29T01:46:36.647Z,100640
2018-05-29T01:49:05.023Z,100636
2018-05-29T01:51:33.449Z,100635
2018-05-29T01:54:01.832Z,100634
2018-05-29T01:56:30.492Z,100624
2018-05-29T01:58:58.816Z,100625
2018-05-29T02:01:27.127Z,100622
2018-05-29T02:03:57.134Z,100620
2018-05-29T02:06:26.326Z,100621
2018-05-29T02:08:54.641Z,100619
2018-05-29T02:11:24.052Z,100617
2018-05-29T02:13:52.382Z,100613
2018-05-29T02:16:20.806Z,100607
2018-05-29T02:18:49.218Z,100610
2018-05-29T02:21:17.831Z,100606
2018-05-29T02:23:46.362Z,100603
2018-05-29T02:26:14.700Z,100605
2018-05-29T02:28:43.814Z,100582
2018-05-29T02:31:12.206Z,100620
2018-05-29T02:33:40.572Z,100614
2018-05-29T02:36:09.170Z,100612
2018-05-29T02:38:37.540Z,100614
2018-05-29T02:41:05.891Z,100610
2018-05-29T02:43:36.170Z,100610
2018-05-29T02:46:04.477Z,100605
2018-05-29T02:48:33.700Z,100608
2018-05-29T02:51:02.031Z,100604
2018-05-29T02:53:30.806Z,100602
2018-05-29T02:55:59.360Z,100593
2018-05-29T02:58:27.702Z,100596
2018-05-29T03:00:56.804Z,100590
2018-05-29T03:03:25.912Z,100589
2018-05-29T03:05:54.280Z,100584
2018-05-29T03:08:23.612Z,100581
2018-05-29T03:10:52.277Z,100582
2018-05-29T03:13:20.761Z,100586
2018-05-29T03:15:49.211Z,100578
2018-05-29T03:18:19.486Z,100583
2018-05-29T03:20:48.052Z,100579
2018-05-29T03:23:16.511Z,100585
2018-05-29T03:25:44.958Z,100583
2018-05-29T03:28:14.192Z,100579
2018-05-29T03:30:42.531Z,100580
2018-05-29T03:33:11.136Z,100575
2018-05-29T03:35:39.470Z,100576
2018-05-29T03:38:07.960Z,100580
2018-05-29T03:40:36.851Z,100580
2018-05-29T03:43:05.457Z,100579
2018-05-29T03:45:33.846Z,100582
2018-05-29T03:48:02.200Z,100574
2018-05-29T03:50:31.806Z,100571
2018-05-29T03:53:02.298Z,100563
2018-05-29T03:55:30.738Z,100572
2018-05-29T03:57:59.031Z,100586
2018-05-29T04:00:27.326Z,100584
2018-05-29T04:02:55.743Z,100581
2018-05-29T04:05:24.243Z,100576
2018-05-29T04:07:52.801Z,100576
2018-05-29T04:10:21.961Z,100573
2018-05-29T04:12:50.303Z,100572
2018-05-29T04:15:18.671Z,100575
2018-05-29T04:17:46.990Z,100573
2018-05-29T04:20:15.570Z,100577
2018-05-29T04:22:45.332Z,100576
2018-05-29T04:25:13.729Z,100574
2018-05-29T04:27:42.013Z,100574
2018-05-29T04:30:10.467Z,100573
2018-05-29T04:32:39.061Z,100574
2018-05-29T04:35:07.480Z,100573
2018-05-29T04:37:37.632Z,100574
2018-05-29T04:40:07.062Z,100577
2018-05-29T04:42:35.415Z,100569
2018-05-29T04:45:04.517Z,100575
2018-05-29T04:47:33.172Z,100576
2018-05-29T04:50:01.624Z,100571
2018-05-29T04:52:30.074Z,100575
2018-05-29T04:54:58.451Z,100571
2018-05-29T04:57:26.815Z,100578
2018-05-29T04:59:55.141Z,100581
2018-05-29T05:02:23.563Z,100579
2018-05-29T05:04:52.121Z,100576
2018-05-29T05:07:20.458Z,100580
2018-05-29T05:09:48.813Z,100580
2018-05-29T05:12:17.144Z,100581
2018-05-29T05:14:45.777Z,100579
2018-05-29T05:17:14.457Z,100576
2018-05-29T05:19:42.831Z,100574
2018-05-29T05:22:11.292Z,100568
2018-05-29T05:24:40.738Z,100569
2018-05-29T05:27:09.183Z,100571
2018-05-29T05:29:38.517Z,100564
2018-05-29T05:32:06.954Z,100564
2018-05-29T05:34:36.253Z,100563
2018-05-29T05:37:04.632Z,100558
2018-05-29T05:39:33.531Z,100564
2018-05-29T05:42:01.877Z,100561
2018-05-29T05:44:31.114Z,100569
2018-05-29T05:46:59.468Z,100569
2018-05-29T05:49:27.799Z,100565
2018-05-29T05:51:56.221Z,100568
2018-05-29T05:54:24.691Z,100564
2018-05-29T05:56:54.283Z,100565
2018-05-29T05:59:23.727Z,100565
2018-05-29T06:01:52.177Z,100566
2018-05-29T06:04:21.347Z,100569
2018-05-29T06:06:51.306Z,100570
2018-05-29T06:09:19.809Z,100561
2018-05-29T06:11:48.406Z,100562
2018-05-29T06:14:16.771Z,100561
2018-05-29T06:16:45.128Z,100564
2018-05-29T06:19:13.464Z,100567
2018-05-29T06:21:41.863Z,100561
2018-05-29T06:24:10.978Z,100568
2018-05-29T06:26:39.508Z,100567
2018-05-29T06:29:07.916Z,100566
2018-05-29T06:31:36.652Z,100563
2018-05-29T06:34:05.012Z,100558
2018-05-29T06:36:33.958Z,100561
2018-05-29T06:39:03.018Z,100557
2018-05-29T06:41:31.583Z,100555
2018-05-29T06:43:59.868Z,100547
2018-05-29T06:46:28.442Z,100560
2018-05-29T06:48:56.791Z,100560
2018-05-29T06:51:25.323Z,100562
2018-05-29T06:53:53.632Z,100558
2018-05-29T06:56:22.011Z,100550
2018-05-29T06:58:50.406Z,100550
2018-05-29T07:01:19.824Z,100548
2018-05-29T07:03:48.278Z,100554
2018-05-29T07:06:16.755Z,100548
2018-05-29T07:08:45.059Z,100545
2018-05-29T07:11:13.433Z,100545
2018-05-29T07:13:41.751Z,100543
2018-05-29T07:16:10.207Z,100541
2018-05-29T07:18:38.546Z,100540
2018-05-29T07:21:07.076Z,100540
2018-05-29T07:23:36.393Z,100530
2018-05-29T07:26:05.612Z,100525
2018-05-29T07:28:34.133Z,100518
2018-05-29T07:31:02.458Z,100522
2018-05-29T07:33:32.817Z,100523
2018-05-29T07:36:01.192Z,100512
2018-05-29T07:38:29.697Z,100514
2018-05-29T07:40:58.127Z,100508
2018-05-29T07:43:26.472Z,100503
2018-05-29T07:45:54.991Z,100505
2018-05-29T07:48:23.347Z,100508
2018-05-29T07:50:52.496Z,100502
2018-05-29T07:53:21.066Z,100503
2018-05-29T07:55:49.545Z,100502
2018-05-29T07:58:17.871Z,100506
2018-05-29T08:00:47.015Z,100500
2018-05-29T08:03:15.453Z,100498
2018-05-29T08:05:44.573Z,100489
2018-05-29T08:08:12.946Z,100497
2018-05-29T08:10:41.479Z,100503
2018-05-29T08:13:09.967Z,100492
2018-05-29T08:15:38.476Z,100490
2018-05-29T08:18:06.777Z,100484
2018-05-29T08:20:35.171Z,100485
2018-05-29T08:23:03.532Z,100485
2018-05-29T08:25:31.903Z,100478
2018-05-29T08:28:00.412Z,100474
2018-05-29T08:30:28.862Z,100472
2018-05-29T08:32:57.941Z,100463
2018-05-29T08:35:26.438Z,100465
2018-05-29T08:37:54.856Z,100471
2018-05-29T08:40:23.393Z,100465
2018-05-29T08:42:52.942Z,100465
2018-05-29T08:45:21.313Z,100456
2018-05-29T08:47:50.487Z,100453
2018-05-29T08:50:18.954Z,100448
2018-05-29T08:52:47.447Z,100447
2018-05-29T08:55:15.978Z,100445
2018-05-29T08:57:45.239Z,100442
2018-05-29T09:00:13.661Z,100438
2018-05-29T09:02:42.899Z,100436
2018-05-29T09:05:11.300Z,100429
2018-05-29T09:07:39.884Z,100425
2018-05-29T09:10:10.127Z,100422
2018-05-29T09:12:40.563Z,100422
2018-05-29T09:15:09.053Z,100422
2018-05-29T09:17:37.600Z,100417
2018-05-29T09:20:05.983Z,100414
2018-05-29T09:22:35.332Z,100413
2018-05-29T09:25:04.658Z,100415
2018-05-29T09:27:33.113Z,100409
2018-05-29T09:30:01.511Z,100407
2018-05-29T09:32:29.828Z,100413
2018-05-29T09:34:59.232Z,100407
2018-05-29T09:37:27.959Z,100409
2018-05-29T09:39:57.199Z,100403
2018-05-29T09:42:26.517Z,100404
2018-05-29T09:44:55.636Z,100397
2018-05-29T09:47:25.728Z,100399
2018-05-29T09:49:56.034Z,100400
2018-05-29T09:52:25.133Z,100393
2018-05-29T09:54:53.551Z,100394
2018-05-29T09:57:21.865Z,100396
2018-05-29T09:59:50.192Z,100398
2018-05-29T10:02:18.784Z,100384
2018-05-29T10:04:47.228Z,100379
2018-05-29T10:07:15.817Z,100382
2018-05-29T10:09:44.136Z,100380
2018-05-29T10:12:12.512Z,100374
2018-05-29T10:14:40.879Z,100375
2018-05-29T10:17:09.552Z,100376
2018-05-29T10:19:37.923Z,100372
2018-05-29T10:22:06.294Z,100371
2018-05-29T10:24:34.639Z,100372
2018-05-29T10:27:03.047Z,100376
2018-05-29T10:29:31.803Z,100377
2018-05-29T10:32:00.139Z,100364
2018-05-29T10:34:28.494Z,100340
2018-05-29T10:36:56.972Z,100360
2018-05-29T10:39:25.487Z,100360
2018-05-29T10:41:53.988Z,100355
2018-05-29T10:44:22.519Z,100360
2018-05-29T10:46:51.113Z,100358
2018-05-29T10:49:19.454Z,100362
2018-05-29T10:51:50.043Z,100355
2018-05-29T10:54:18.454Z,100354
2018-05-29T10:56:47.688Z,100353
2018-05-29T10:59:16.163Z,100350
2018-05-29T11:01:44.713Z,100349
2018-05-29T11:04:13.192Z,100351
2018-05-29T11:06:42.431Z,100340
2018-05-29T11:09:10.855Z,100343
2018-05-29T11:11:39.401Z,100338
2018-05-29T11:14:07.844Z,100335
2018-05-29T11:16:36.352Z,100338
2018-05-29T11:19:04.664Z,100326
2018-05-29T11:21:33.039Z,100326
2018-05-29T11:24:01.394Z,100322
2018-05-29T11:26:29.858Z,100321
2018-05-29T11:28:58.355Z,100322
2018-05-29T11:31:26.907Z,100319
2018-05-29T11:33:55.494Z,100319
2018-05-29T11:36:24.059Z,100321
2018-05-29T11:38:52.598Z,100319
2018-05-29T11:41:20.943Z,100309
2018-05-29T11:43:49.413Z,100305
2018-05-29T11:46:17.930Z,100305
2018-05-29T11:48:46.391Z,100304
2018-05-29T11:51:15.213Z,100300
2018-05-29T11:53:45.763Z,100296
2018-05-29T11:56:14.121Z,100285
2018-05-29T11:58:43.283Z,100279
2018-05-29T12:01:11.640Z,100276
2018-05-29T12:03:39.957Z,100273
2018-05-29T12:06:08.381Z,100263
2018-05-29T12:08:36.833Z,100256
2018-05-29T12:11:06.068Z,100256
2018-05-29T12:13:34.534Z,100260
2018-05-29T12:16:02.929Z,100258
2018-05-29T12:18:31.304Z,100256
2018-05-29T12:20:59.670Z,100253
2018-05-29T12:23:28.018Z,100256
2018-05-29T12:25:58.439Z,100248
2018-05-29T12:28:26.845Z,100238
2018-05-29T12:30:55.333Z,100233
2018-05-29T12:33:23.648Z,100232
2018-05-29T12:35:51.951Z,100230
2018-05-29T12:38:21.160Z,100237
2018-05-29T12:40:49.485Z,100231
2018-05-29T12:43:17.938Z,100222
2018-05-29T12:45:46.276Z,100207
2018-05-29T12:48:14.883Z,100200
2018-05-29T12:50:43.260Z,100195
2018-05-29T12:53:11.667Z,100204
2018-05-29T12:55:41.904Z,100217
2018-05-29T12:58:10.450Z,100231
2018-05-29T13:00:39.125Z,100238
2018-05-29T13:03:07.475Z,100239
2018-05-29T13:05:36.583Z,100233
2018-05-29T13:08:04.985Z,100229
2018-05-29T13:10:33.562Z,100226
2018-05-29T13:13:01.953Z,100222
2018-05-29T13:15:30.445Z,100225
2018-05-29T13:17:58.797Z,100224
2018-05-29T13:20:27.140Z,100227
2018-05-29T13:22:56.272Z,100226
2018-05-29T13:25:24.659Z,100221
2018-05-29T13:27:54.775Z,100205
2018-05-29T13:30:23.084Z,100194
2018-05-29T13:32:51.485Z,100186
2018-05-29T13:35:20.628Z,100179
2018-05-29T13:37:49.164Z,100175
2018-05-29T13:40:18.359Z,100183
2018-05-29T13:42:47.500Z,100203
2018-05-29T13:45:15.876Z,100224
2018-05-29T13:47:44.419Z,100246
2018-05-29T13:50:12.924Z,100278
2018-05-29T13:52:41.294Z,100274
2018-05-29T13:55:09.869Z,100275
2018-05-29T13:57:38.209Z,100271
2018-05-29T14:00:08.053Z,100262
2018-05-29T14:02:36.563Z,100258
2018-05-29T14:05:05.084Z,100263
2018-05-29T14:07:33.518Z,100273
2018-05-29T14:10:01.966Z,100263
2018-05-29T14:12:30.316Z,100253
2018-05-29T14:14:58.865Z,100242
2018-05-29T14:17:27.295Z,100259
2018-05-29T14:19:55.825Z,100286
2018-05-29T14:22:24.228Z,100300
2018-05-29T14:24:52.770Z,100322
2018-05-29T14:27:21.120Z,100361
2018-05-29T14:29:49.662Z,100334
2018-05-29T14:32:20.794Z,100319
2018-05-29T14:34:49.165Z,100325
2018-05-29T14:37:17.504Z,100311
2018-05-29T14:39:45.928Z,100291
2018-05-29T14:42:15.069Z,100274
2018-05-29T14:44:43.561Z,100261
2018-05-29T14:47:12.081Z,100249
2018-05-29T14:49:41.456Z,100248
2018-05-29T14:52:09.981Z,100247
2018-05-29T14:54:38.360Z,100261
2018-05-29T14:57:06.746Z,100261
2018-05-29T14:59:35.960Z,100264
2018-05-29T15:02:04.573Z,100279
2018-05-29T15:04:32.969Z,100276
2018-05-29T15:07:01.645Z,100270
2018-05-29T15:09:30.385Z,100274
2018-05-29T15:11:59.070Z,100285
2018-05-29T15:14:27.756Z,100299
2018-05-29T15:16:56.151Z,100316
2018-05-29T15:19:24.799Z,100313
2018-05-29T15:21:54.073Z,100295
2018-05-29T15:24:22.498Z,100279
2018-05-29T15:26:51.005Z,100270
2018-05-29T15:29:19.781Z,100263
2018-05-29T15:31:48.300Z,100264
2018-05-29T15:34:16.702Z,100264
2018-05-29T15:36:45.920Z,100268
2018-05-29T15:39:16.166Z,100303
2018-05-29T15:41:44.767Z,100312
2018-05-29T15:44:13.205Z,100336
2018-05-29T15:46:42.706Z,100364
2018-05-29T15:49:11.050Z,100372
2018-05-29T15:51:40.209Z,100352
2018-05-29T15:54:08.685Z,100351
2018-05-29T15:56:37.186Z,100345
2018-05-29T15:59:05.620Z,100351
2018-05-29T16:01:34.063Z,100358
2018-05-29T16:04:02.424Z,100367
2018-05-29T16:06:30.771Z,100364
2018-05-29T16:08:59.249Z,100371
2018-05-29T16:11:27.615Z,100371
2018-05-29T16:13:57.664Z,100359
2018-05-29T16:16:27.752Z,100355
2018-05-29T16:18:58.013Z,100352
2018-05-29T16:21:27.855Z,100349
2018-05-29T16:23:58.180Z,100347
2018-05-29T16:26:28.068Z,100333
2018-05-29T16:28:58.025Z,100329
2018-05-29T16:31:28.176Z,100334
2018-05-29T16:33:58.157Z,100312
2018-05-29T16:36:28.264Z,100297
2018-05-29T16:38:58.325Z,100295
2018-05-29T16:41:26.890Z,100290
2018-05-29T16:43:57.447Z,100282
2018-05-29T16:46:26.871Z,100281
2018-05-29T16:48:56.910Z,100276
2018-05-29T16:51:25.362Z,100271
2018-05-29T16:53:53.902Z,100268
2018-05-29T16:56:22.403Z,100265
2018-05-29T16:58:51.280Z,100253
2018-05-29T17:01:21.549Z,100244
2018-05-29T17:03:50.000Z,100237
2018-05-29T17:06:18.441Z,100224
2018-05-29T17:08:47.034Z,100215
2018-05-29T17:11:15.469Z,100215
2018-05-29T17:13:44.599Z,100211
2018-05-29T17:16:13.069Z,100209
2018-05-29T17:18:41.823Z,100224
2018-05-29T17:21:10.259Z,100229
2018-05-29T17:23:38.592Z,100236
2018-05-29T17:26:07.096Z,100242
2018-05-29T17:28:35.654Z,100250
2018-05-29T17:31:04.082Z,100262
2018-05-29T17:33:32.462Z,100270
2018-05-29T17:36:00.992Z,100278
2018-05-29T17:38:30.249Z,100284
2018-05-29T17:40:58.721Z,100285
2018-05-29T17:43:27.205Z,100287
2018-05-29T17:45:55.691Z,100302
2018-05-29T17:48:24.051Z,100318
2018-05-29T17:50:52.717Z,100332
2018-05-29T17:53:21.287Z,100351
2018-05-29T17:55:49.883Z,100348
2018-05-29T17:58:18.304Z,100350
2018-05-29T18:00:47.149Z,100342
2018-05-29T18:03:15.587Z,100336
2018-05-29T18:05:43.987Z,100331
2018-05-29T18:08:12.675Z,100332
2018-05-29T18:10:41.367Z,100330
2018-05-29T18:13:10.187Z,100343
2018-05-29T18:15:39.359Z,100353
2018-05-29T18:18:07.883Z,100360
2018-05-29T18:20:37.336Z,100360
2018-05-29T18:23:06.325Z,100358
2018-05-29T18:25:35.331Z,100360
2018-05-29T18:28:03.798Z,100376
2018-05-29T18:30:32.206Z,100372
2018-05-29T18:33:00.771Z,100369
2018-05-29T18:35:29.390Z,100377
2018-05-29T18:37:58.528Z,100392
2018-05-29T18:40:26.979Z,100397
2018-05-29T18:42:55.532Z,100407
2018-05-29T18:45:24.144Z,100412
2018-05-29T18:47:53.503Z,100416
2018-05-29T18:50:21.850Z,100408
2018-05-29T18:52:50.232Z,100414
2018-05-29T18:55:18.740Z,100414
2018-05-29T18:57:47.260Z,100421
2018-05-29T19:00:16.451Z,100415
2018-05-29T19:02:45.727Z,100420
2018-05-29T19:05:14.211Z,100418
2018-05-29T19:07:42.714Z,100422
2018-05-29T19:10:11.836Z,100425
2018-05-29T19:12:40.365Z,100420
2018-05-29T19:15:08.735Z,100418
2018-05-29T19:17:38.401Z,100428
2018-05-29T19:20:06.797Z,100432
2018-05-29T19:22:35.330Z,100437
2018-05-29T19:25:04.741Z,100435
2018-05-29T19:27:33.118Z,100442
2018-05-29T19:30:01.454Z,100443
2018-05-29T19:32:29.839Z,100450
2018-05-29T19:34:58.180Z,100457
2018-05-29T19:37:26.685Z,100451
2018-05-29T19:39:55.181Z,100452
2018-05-29T19:42:24.304Z,100452
2018-05-29T19:44:52.827Z,100452
2018-05-29T19:47:21.154Z,100456
2018-05-29T19:49:50.330Z,100453
2018-05-29T19:52:19.540Z,100451
2018-05-29T19:54:48.660Z,100448
2018-05-29T19:57:17.002Z,100444
2018-05-29T19:59:46.108Z,100437
2018-05-29T20:02:15.199Z,100435
2018-05-29T20:04:44.489Z,100430
2018-05-29T20:07:13.727Z,100430
2018-05-29T20:09:42.120Z,100434
2018-05-29T20:12:10.541Z,100433
2018-05-29T20:14:38.990Z,100428
2018-05-29T20:17:07.837Z,100425
2018-05-29T20:19:36.345Z,100426
2018-05-29T20:22:04.981Z,100420
2018-05-29T20:24:33.620Z,100415
2018-05-29T20:27:02.407Z,100413
2018-05-29T20:29:31.059Z,100414
2018-05-29T20:31:59.450Z,100402
2018-05-29T20:34:28.345Z,100401
2018-05-29T20:36:56.806Z,100401
2018-05-29T20:39:25.460Z,100398
2018-05-29T20:41:55.052Z,100392
2018-05-29T20:44:24.489Z,100391
2018-05-29T20:46:52.973Z,100382
2018-05-29T20:49:21.316Z,100376
2018-05-29T20:51:50.551Z,100381
2018-05-29T20:54:19.140Z,100380
2018-05-29T20:56:47.602Z,100375
2018-05-29T20:59:17.626Z,100378
2018-05-29T21:01:46.055Z,100377
2018-05-29T21:04:14.577Z,100382
2018-05-29T21:06:43.077Z,100393
2018-05-29T21:09:11.575Z,100389
2018-05-29T21:11:39.890Z,100391
2018-05-29T21:14:09.036Z,100394
2018-05-29T21:16:37.401Z,100394
2018-05-29T21:19:05.760Z,100397
2018-05-29T21:21:34.086Z,100394
2018-05-29T21:24:02.634Z,100397
2018-05-29T21:26:31.201Z,100405
2018-05-29T21:28:59.622Z,100407
2018-05-29T21:31:28.008Z,100412
2018-05-29T21:33:56.330Z,100418
2018-05-29T21:36:24.786Z,100422
2018-05-29T21:38:53.860Z,100427
2018-05-29T21:41:22.293Z,100430
2018-05-29T21:43:50.969Z,100432
2018-05-29T21:46:19.319Z,100433
2018-05-29T21:48:48.471Z,100437
2018-05-29T21:51:16.846Z,100433
2018-05-29T21:53:45.241Z,100426
2018-05-29T21:56:13.587Z,100424
2018-05-29T21:58:42.007Z,100428
2018-05-29T22:01:10.553Z,100426
2018-05-29T22:03:38.896Z,100421
2018-05-29T22:06:07.275Z,100419
2018-05-29T22:08:35.876Z,100418
2018-05-29T22:11:04.423Z,100407
2018-05-29T22:13:32.787Z,100410
2018-05-29T22:16:02.041Z,100417
2018-05-29T22:18:30.372Z,100422
2018-05-29T22:20:59.648Z,100423
2018-05-29T22:23:28.157Z,100428
2018-05-29T22:25:56.538Z,100433
2018-05-29T22:28:25.271Z,100432
2018-05-29T22:30:53.627Z,100438
2018-05-29T22:33:22.186Z,100439
2018-05-29T22:35:50.908Z,100439
2018-05-29T22:38:19.390Z,100442
2018-05-29T22:40:47.856Z,100447
2018-05-29T22:43:16.576Z,100450
2018-05-29T22:45:45.077Z,100454
2018-05-29T22:48:14.255Z,100456
2018-05-29T22:50:42.599Z,100455
2018-05-29T22:53:11.158Z,100465
2018-05-29T22:55:39.689Z,100468
2018-05-29T22:58:08.133Z,100476
2018-05-29T23:00:36.468Z,100484
2018-05-29T23:03:06.709Z,100488
2018-05-29T23:05:35.096Z,100491
2018-05-29T23:08:03.423Z,100492
2018-05-29T23:10:32.116Z,100502
2018-05-29T23:13:00.597Z,100499
2018-05-29T23:15:29.811Z,100497
2018-05-29T23:17:58.196Z,100495
2018-05-29T23:20:26.538Z,100500
2018-05-29T23:22:55.144Z,100501
2018-05-29T23:25:24.495Z,100506
2018-05-29T23:27:52.972Z,100508
2018-05-29T23:30:21.441Z,100513
2018-05-29T23:32:49.873Z,100513
2018-05-29T23:35:20.071Z,100520
2018-05-29T23:37:48.661Z,100519
2018-05-29T23:40:17.871Z,100526
2018-05-29T23:42:47.164Z,100529
2018-05-29T23:45:16.280Z,100539
2018-05-29T23:47:44.740Z,100540
2018-05-29T23:50:14.165Z,100545
2018-05-29T23:52:42.514Z,100550
2018-05-29T23:55:11.637Z,100550
2018-05-29T23:57:40.245Z,100545
